CST,Max TemperatureF,Mean TemperatureF,Min TemperatureF,Max Dew PointF,MeanDew PointF,Min DewpointF,Max Humidity, Mean Humidity, Min Humidity, Max Sea Level PressureIn, Mean Sea Level PressureIn, Min Sea Level PressureIn, Max VisibilityMiles, Mean VisibilityMiles, Min VisibilityMiles, Max Wind SpeedMPH, Mean Wind SpeedMPH, Max Gust SpeedMPH,PrecipitationIn, CloudCover, Events, WindDirDegrees
2011-12-1,60,46,33,36,28,19,66,52,29,30.33,30.18,30.08,10,10,8,13,6,17,0.00,2,,155
2011-12-2,51,44,37,41,34,28,76,64,57,30.37,30.30,30.21,10,10,10,10,7,,0.00,7,,91
2011-12-3,60,53,46,55,46,34,94,75,58,30.20,30.04,29.92,10,9,5,21,10,32,0.76,6,,167
2011-12-4,48,42,37,45,35,32,93,83,75,30.18,30.12,30.03,10,10,8,13,8,17,0.04,8,,342
2011-12-5,35,32,28,30,25,21,81,77,69,30.28,30.20,30.11,10,10,10,18,12,23,0.00,7,,14
2011-12-6,28,26,24,23,21,19,86,78,74,30.28,30.23,30.18,10,9,2,12,8,16,0.00,8,,353
2011-12-7,39,29,19,19,18,16,93,65,39,30.24,30.21,30.18,10,10,7,14,5,16,0.00,1,,250
2011-12-8,48,37,26,27,22,18,80,62,34,30.25,30.19,30.13,10,10,6,12,3,,0.00,0,,186
2011-12-9,46,36,26,30,26,21,93,75,53,30.45,30.29,30.18,10,9,3,13,3,18,0.00,0,,7
2011-12-10,46,34,21,30,24,18,100,76,43,30.55,30.48,30.44,10,6,0,8,2,,0.00,1,,196
2011-12-11,53,38,24,32,24,19,93,62,33,30.45,30.37,30.29,10,10,8,10,4,,0.00,0,,172
2011-12-12,46,42,37,37,27,21,81,57,43,30.33,30.28,30.26,10,10,10,7,4,,0.00,8,,141
2011-12-13,57,48,39,46,41,37,93,81,63,30.35,30.27,30.17,10,10,4,12,5,17,0.45,7,,119
2011-12-14,60,58,55,57,54,50,94,88,82,30.12,29.97,29.85,10,10,5,17,10,26,0.40,8,Thunderstorm,183
2011-12-15,59,48,37,55,37,27,94,74,57,30.30,30.15,29.91,10,10,8,15,7,17,0.00,2,,336
2011-12-16,44,37,30,27,25,21,86,65,45,30.41,30.35,30.28,10,10,10,12,7,,0.00,0,,21
2011-12-17,51,38,24,32,27,21,93,71,44,30.43,30.38,30.35,10,9,2,9,2,,0.00,0,,232
2011-12-18,55,42,28,37,31,25,93,67,44,30.35,30.24,30.08,10,10,6,14,5,18,0.00,3,,189
2011-12-19,57,52,48,41,35,32,67,52,44,30.04,29.98,29.88,10,10,10,9,7,,0.00,8,,149
2011-12-20,60,50,39,48,43,36,93,82,52,29.86,29.81,29.73,10,9,5,17,9,22,0.05,7,,191
2011-12-21,39,36,32,36,32,28,93,86,81,29.96,29.90,29.85,10,9,2,12,8,16,0.00,5,,209
2011-12-22,51,42,32,37,34,30,93,81,54,30.25,30.04,29.91,10,10,6,17,4,23,0.00,3,,39
2011-12-23,39,34,28,30,27,21,87,76,56,30.44,30.36,30.29,10,10,8,10,6,,0.00,5,,360
2011-12-24,48,34,21,27,21,18,100,68,30,30.44,30.39,30.35,10,8,3,7,2,,0.00,0,,215
2011-12-25,55,39,23,28,22,19,86,56,26,30.43,30.36,30.33,10,10,10,9,1,,0.00,0,,37
2011-12-26,42,36,30,36,32,25,93,79,61,30.30,30.11,29.93,10,9,2,12,4,,0.05,7,,87
2011-12-27,48,40,32,36,29,23,93,67,40,30.13,30.02,29.89,10,10,9,17,8,24,0.00,1,,299
2011-12-28,55,40,24,27,24,19,86,62,33,30.12,30.06,29.99,10,10,10,15,4,18,0.00,0,,192
2011-12-29,62,48,35,36,31,27,75,56,30,29.96,29.85,29.73,10,10,10,16,6,21,0.00,0,,210
2011-12-30,59,50,37,39,29,19,76,47,23,29.99,29.91,29.73,10,10,10,20,9,25,0.00,0,,266
2011-12-31,64,48,33,36,27,25,75,49,24,29.98,29.89,29.71,10,10,10,22,8,33,0.00,0,,173